<?xml version="1.0" encoding="utf-8"?>
<gpx xmlns:xsi="http://www.w3.org/2001/XMLSchema-instance" xmlns:xsd="http://www.w3.org/2001/XMLSchema" version="1.1" creator="Shapelink.com" xmlns="http://www.topografix.com/GPX/1/1" xmlns:gpxtpx="http://www.garmin.com/xmlschemas/TrackPointExtension/v1">
  <metadata>
    <name>Løping 5.53 km, 2012-08-01</name>
    <desc></desc>
    <author><name>Mikael Blom</name></author> 
    <time>2012-08-01T20:27:07Z</time>
  </metadata>
  <trk>
    <name>Løping 5.53 km, 2012-08-01</name>
    <trkseg>
      <trkpt lat="59.9997676" lon="17.737002">
        <ele>46.2806</ele>
        <time>2012-08-01T20:27:07Z</time>
      </trkpt>
      <trkpt lat="59.9995752" lon="17.7369562">
        <ele>46.7612</ele>
        <time>2012-08-01T20:27:13Z</time>
      </trkpt>
      <trkpt lat="59.9994726" lon="17.7369052">
        <ele>45.7999</ele>
        <time>2012-08-01T20:27:17Z</time>
      </trkpt>
      <trkpt lat="59.9993245" lon="17.7368982">
        <ele>44.8386</ele>
        <time>2012-08-01T20:27:22Z</time>
      </trkpt>
      <trkpt lat="59.9991899" lon="17.7368627">
        <ele>47.2418</ele>
        <time>2012-08-01T20:27:26Z</time>
      </trkpt>
      <trkpt lat="59.9990626" lon="17.7368258">
        <ele>51.0872</ele>
        <time>2012-08-01T20:27:30Z</time>
      </trkpt>
      <trkpt lat="59.9989675" lon="17.7367845">
        <ele>53.0098</ele>
        <time>2012-08-01T20:27:34Z</time>
      </trkpt>
      <trkpt lat="59.9988984" lon="17.7367596">
        <ele>53.0098</ele>
        <time>2012-08-01T20:27:37Z</time>
      </trkpt>
      <trkpt lat="59.998767" lon="17.7367812">
        <ele>51.5679</ele>
        <time>2012-08-01T20:27:42Z</time>
      </trkpt>
      <trkpt lat="59.9986857" lon="17.7367612">
        <ele>50.126</ele>
        <time>2012-08-01T20:27:45Z</time>
      </trkpt>
      <trkpt lat="59.9986163" lon="17.7367609">
        <ele>50.126</ele>
        <time>2012-08-01T20:27:47Z</time>
      </trkpt>
      <trkpt lat="59.9984231" lon="17.7368091">
        <ele>53.9712</ele>
        <time>2012-08-01T20:27:53Z</time>
      </trkpt>
      <trkpt lat="59.9982896" lon="17.7368534">
        <ele>54.4518</ele>
        <time>2012-08-01T20:27:59Z</time>
      </trkpt>
      <trkpt lat="59.9982138" lon="17.7368725">
        <ele>54.9324</ele>
        <time>2012-08-01T20:28:02Z</time>
      </trkpt>
      <trkpt lat="59.9981045" lon="17.7368923">
        <ele>52.5292</ele>
        <time>2012-08-01T20:28:07Z</time>
      </trkpt>
      <trkpt lat="59.9979582" lon="17.73681">
        <ele>51.5679</ele>
        <time>2012-08-01T20:28:13Z</time>
      </trkpt>
      <trkpt lat="59.997847" lon="17.7367792">
        <ele>51.5679</ele>
        <time>2012-08-01T20:28:17Z</time>
      </trkpt>
      <trkpt lat="59.9977321" lon="17.736762">
        <ele>51.5679</ele>
        <time>2012-08-01T20:28:22Z</time>
      </trkpt>
      <trkpt lat="59.9977006" lon="17.7367357">
        <ele>52.0486</ele>
        <time>2012-08-01T20:28:24Z</time>
      </trkpt>
      <trkpt lat="59.9975979" lon="17.7367224">
        <ele>52.0486</ele>
        <time>2012-08-01T20:28:29Z</time>
      </trkpt>
      <trkpt lat="59.9974773" lon="17.7367501">
        <ele>53.4905</ele>
        <time>2012-08-01T20:28:34Z</time>
      </trkpt>
      <trkpt lat="59.9973554" lon="17.736834">
        <ele>52.0486</ele>
        <time>2012-08-01T20:28:39Z</time>
      </trkpt>
      <trkpt lat="59.9971792" lon="17.7367528">
        <ele>53.4905</ele>
        <time>2012-08-01T20:28:44Z</time>
      </trkpt>
      <trkpt lat="59.9970151" lon="17.7366674">
        <ele>59.2584</ele>
        <time>2012-08-01T20:28:49Z</time>
      </trkpt>
      <trkpt lat="59.9969178" lon="17.7366493">
        <ele>60.7003</ele>
        <time>2012-08-01T20:28:53Z</time>
      </trkpt>
      <trkpt lat="59.9968129" lon="17.7365835">
        <ele>62.6229</ele>
        <time>2012-08-01T20:28:57Z</time>
      </trkpt>
      <trkpt lat="59.9966193" lon="17.7364633">
        <ele>66.949</ele>
        <time>2012-08-01T20:29:04Z</time>
      </trkpt>
      <trkpt lat="59.996586" lon="17.7364322">
        <ele>67.9103</ele>
        <time>2012-08-01T20:29:05Z</time>
      </trkpt>
      <trkpt lat="59.9964199" lon="17.7363193">
        <ele>71.7555</ele>
        <time>2012-08-01T20:29:10Z</time>
      </trkpt>
      <trkpt lat="59.9963868" lon="17.7363104">
        <ele>73.1976</ele>
        <time>2012-08-01T20:29:11Z</time>
      </trkpt>
      <trkpt lat="59.9962651" lon="17.7361935">
        <ele>77.0428</ele>
        <time>2012-08-01T20:29:15Z</time>
      </trkpt>
      <trkpt lat="59.9961356" lon="17.7361691">
        <ele>74.6395</ele>
        <time>2012-08-01T20:29:20Z</time>
      </trkpt>
      <trkpt lat="59.9960619" lon="17.7361554">
        <ele>70.7942</ele>
        <time>2012-08-01T20:29:24Z</time>
      </trkpt>
      <trkpt lat="59.9960402" lon="17.7361556">
        <ele>69.3523</ele>
        <time>2012-08-01T20:29:25Z</time>
      </trkpt>
      <trkpt lat="59.9960079" lon="17.7361678">
        <ele>66.949</ele>
        <time>2012-08-01T20:29:27Z</time>
      </trkpt>
      <trkpt lat="59.995889" lon="17.736167">
        <ele>62.1423</ele>
        <time>2012-08-01T20:29:33Z</time>
      </trkpt>
      <trkpt lat="59.9958703" lon="17.7361762">
        <ele>60.7003</ele>
        <time>2012-08-01T20:29:34Z</time>
      </trkpt>
      <trkpt lat="59.9958128" lon="17.7361573">
        <ele>58.2971</ele>
        <time>2012-08-01T20:29:37Z</time>
      </trkpt>
      <trkpt lat="59.9956926" lon="17.7362116">
        <ele>56.8551</ele>
        <time>2012-08-01T20:29:43Z</time>
      </trkpt>
      <trkpt lat="59.9955782" lon="17.7362727">
        <ele>53.4905</ele>
        <time>2012-08-01T20:29:48Z</time>
      </trkpt>
      <trkpt lat="59.9955617" lon="17.7362701">
        <ele>53.0098</ele>
        <time>2012-08-01T20:29:49Z</time>
      </trkpt>
      <trkpt lat="59.9955112" lon="17.7362696">
        <ele>51.0872</ele>
        <time>2012-08-01T20:29:51Z</time>
      </trkpt>
      <trkpt lat="59.9954015" lon="17.7362504">
        <ele>50.126</ele>
        <time>2012-08-01T20:29:56Z</time>
      </trkpt>
      <trkpt lat="59.9953358" lon="17.7363266">
        <ele>51.0872</ele>
        <time>2012-08-01T20:29:59Z</time>
      </trkpt>
      <trkpt lat="59.9952181" lon="17.7364224">
        <ele>52.0486</ele>
        <time>2012-08-01T20:30:04Z</time>
      </trkpt>
      <trkpt lat="59.995168" lon="17.7364175">
        <ele>51.0872</ele>
        <time>2012-08-01T20:30:06Z</time>
      </trkpt>
      <trkpt lat="59.9949836" lon="17.7362891">
        <ele>50.6066</ele>
        <time>2012-08-01T20:30:12Z</time>
      </trkpt>
      <trkpt lat="59.994882" lon="17.7361358">
        <ele>52.0486</ele>
        <time>2012-08-01T20:30:16Z</time>
      </trkpt>
      <trkpt lat="59.9947668" lon="17.7359897">
        <ele>55.8938</ele>
        <time>2012-08-01T20:30:20Z</time>
      </trkpt>
      <trkpt lat="59.9946541" lon="17.7358091">
        <ele>62.1423</ele>
        <time>2012-08-01T20:30:24Z</time>
      </trkpt>
      <trkpt lat="59.9945394" lon="17.7356919">
        <ele>68.8716</ele>
        <time>2012-08-01T20:30:27Z</time>
      </trkpt>
      <trkpt lat="59.9944385" lon="17.7356024">
        <ele>70.3135</ele>
        <time>2012-08-01T20:30:31Z</time>
      </trkpt>
      <trkpt lat="59.9943664" lon="17.7356039">
        <ele>64.0651</ele>
        <time>2012-08-01T20:30:36Z</time>
      </trkpt>
      <trkpt lat="59.9943096" lon="17.7356475">
        <ele>59.2584</ele>
        <time>2012-08-01T20:30:40Z</time>
      </trkpt>
      <trkpt lat="59.994192" lon="17.7356727">
        <ele>54.9324</ele>
        <time>2012-08-01T20:30:46Z</time>
      </trkpt>
      <trkpt lat="59.9941059" lon="17.7357386">
        <ele>52.0486</ele>
        <time>2012-08-01T20:30:50Z</time>
      </trkpt>
      <trkpt lat="59.9939464" lon="17.7357043">
        <ele>48.684</ele>
        <time>2012-08-01T20:30:56Z</time>
      </trkpt>
      <trkpt lat="59.9938211" lon="17.7356595">
        <ele>46.7612</ele>
        <time>2012-08-01T20:31:01Z</time>
      </trkpt>
      <trkpt lat="59.9937737" lon="17.7356592">
        <ele>45.7999</ele>
        <time>2012-08-01T20:31:03Z</time>
      </trkpt>
      <trkpt lat="59.9936925" lon="17.7356273">
        <ele>44.358</ele>
        <time>2012-08-01T20:31:07Z</time>
      </trkpt>
      <trkpt lat="59.9936252" lon="17.73562">
        <ele>46.2806</ele>
        <time>2012-08-01T20:31:10Z</time>
      </trkpt>
      <trkpt lat="59.9935334" lon="17.7356553">
        <ele>46.7612</ele>
        <time>2012-08-01T20:31:14Z</time>
      </trkpt>
      <trkpt lat="59.9934683" lon="17.7356967">
        <ele>46.7612</ele>
        <time>2012-08-01T20:31:17Z</time>
      </trkpt>
      <trkpt lat="59.9933917" lon="17.7357886">
        <ele>52.0486</ele>
        <time>2012-08-01T20:31:21Z</time>
      </trkpt>
      <trkpt lat="59.9932835" lon="17.7359487">
        <ele>52.5292</ele>
        <time>2012-08-01T20:31:26Z</time>
      </trkpt>
      <trkpt lat="59.9932076" lon="17.7360857">
        <ele>52.0486</ele>
        <time>2012-08-01T20:31:30Z</time>
      </trkpt>
      <trkpt lat="59.993113" lon="17.7362932">
        <ele>51.5679</ele>
        <time>2012-08-01T20:31:36Z</time>
      </trkpt>
      <trkpt lat="59.9930258" lon="17.7364997">
        <ele>51.0872</ele>
        <time>2012-08-01T20:31:42Z</time>
      </trkpt>
      <trkpt lat="59.992956" lon="17.7366581">
        <ele>50.126</ele>
        <time>2012-08-01T20:31:46Z</time>
      </trkpt>
      <trkpt lat="59.9928653" lon="17.7368441">
        <ele>49.6453</ele>
        <time>2012-08-01T20:31:51Z</time>
      </trkpt>
      <trkpt lat="59.9927535" lon="17.7370533">
        <ele>52.0486</ele>
        <time>2012-08-01T20:31:57Z</time>
      </trkpt>
      <trkpt lat="59.9926541" lon="17.7372046">
        <ele>52.0486</ele>
        <time>2012-08-01T20:32:02Z</time>
      </trkpt>
      <trkpt lat="59.9926103" lon="17.7373035">
        <ele>53.4905</ele>
        <time>2012-08-01T20:32:04Z</time>
      </trkpt>
      <trkpt lat="59.9924827" lon="17.7374454">
        <ele>52.5292</ele>
        <time>2012-08-01T20:32:10Z</time>
      </trkpt>
      <trkpt lat="59.9924383" lon="17.7374703">
        <ele>51.5679</ele>
        <time>2012-08-01T20:32:12Z</time>
      </trkpt>
      <trkpt lat="59.992294" lon="17.737561">
        <ele>52.0486</ele>
        <time>2012-08-01T20:32:18Z</time>
      </trkpt>
      <trkpt lat="59.9922365" lon="17.7375865">
        <ele>52.5292</ele>
        <time>2012-08-01T20:32:20Z</time>
      </trkpt>
      <trkpt lat="59.9921395" lon="17.7376131">
        <ele>53.9712</ele>
        <time>2012-08-01T20:32:24Z</time>
      </trkpt>
      <trkpt lat="59.9920139" lon="17.7375967">
        <ele>57.8165</ele>
        <time>2012-08-01T20:32:30Z</time>
      </trkpt>
      <trkpt lat="59.9919594" lon="17.7376035">
        <ele>57.3358</ele>
        <time>2012-08-01T20:32:32Z</time>
      </trkpt>
      <trkpt lat="59.9918117" lon="17.737654">
        <ele>56.8551</ele>
        <time>2012-08-01T20:32:37Z</time>
      </trkpt>
      <trkpt lat="59.9917196" lon="17.7376811">
        <ele>58.7777</ele>
        <time>2012-08-01T20:32:41Z</time>
      </trkpt>
      <trkpt lat="59.9915714" lon="17.7377102">
        <ele>60.2197</ele>
        <time>2012-08-01T20:32:47Z</time>
      </trkpt>
      <trkpt lat="59.9914735" lon="17.7377153">
        <ele>60.7003</ele>
        <time>2012-08-01T20:32:51Z</time>
      </trkpt>
      <trkpt lat="59.9912937" lon="17.7377174">
        <ele>58.7777</ele>
        <time>2012-08-01T20:32:57Z</time>
      </trkpt>
      <trkpt lat="59.9911999" lon="17.7377185">
        <ele>54.4518</ele>
        <time>2012-08-01T20:33:01Z</time>
      </trkpt>
      <trkpt lat="59.9910881" lon="17.7377976">
        <ele>53.4905</ele>
        <time>2012-08-01T20:33:06Z</time>
      </trkpt>
      <trkpt lat="59.9909882" lon="17.737855">
        <ele>51.5679</ele>
        <time>2012-08-01T20:33:10Z</time>
      </trkpt>
      <trkpt lat="59.9908698" lon="17.7378976">
        <ele>51.0872</ele>
        <time>2012-08-01T20:33:15Z</time>
      </trkpt>
      <trkpt lat="59.9907695" lon="17.7380277">
        <ele>53.0098</ele>
        <time>2012-08-01T20:33:19Z</time>
      </trkpt>
      <trkpt lat="59.9906421" lon="17.7380763">
        <ele>54.4518</ele>
        <time>2012-08-01T20:33:24Z</time>
      </trkpt>
      <trkpt lat="59.9905214" lon="17.7381106">
        <ele>57.3358</ele>
        <time>2012-08-01T20:33:30Z</time>
      </trkpt>
      <trkpt lat="59.9904389" lon="17.738112">
        <ele>57.8165</ele>
        <time>2012-08-01T20:33:34Z</time>
      </trkpt>
      <trkpt lat="59.9903277" lon="17.7381794">
        <ele>56.3745</ele>
        <time>2012-08-01T20:33:38Z</time>
      </trkpt>
      <trkpt lat="59.9902282" lon="17.7383163">
        <ele>55.4131</ele>
        <time>2012-08-01T20:33:43Z</time>
      </trkpt>
      <trkpt lat="59.9900938" lon="17.7383681">
        <ele>52.0486</ele>
        <time>2012-08-01T20:33:49Z</time>
      </trkpt>
      <trkpt lat="59.9900658" lon="17.7383723">
        <ele>51.0872</ele>
        <time>2012-08-01T20:33:50Z</time>
      </trkpt>
      <trkpt lat="59.989908" lon="17.7384213">
        <ele>49.1646</ele>
        <time>2012-08-01T20:33:56Z</time>
      </trkpt>
      <trkpt lat="59.9898423" lon="17.7384447">
        <ele>47.2418</ele>
        <time>2012-08-01T20:33:59Z</time>
      </trkpt>
      <trkpt lat="59.9897349" lon="17.7384526">
        <ele>47.7225</ele>
        <time>2012-08-01T20:34:03Z</time>
      </trkpt>
      <trkpt lat="59.9897061" lon="17.7384658">
        <ele>47.2418</ele>
        <time>2012-08-01T20:34:04Z</time>
      </trkpt>
      <trkpt lat="59.9895439" lon="17.7385083">
        <ele>49.6453</ele>
        <time>2012-08-01T20:34:09Z</time>
      </trkpt>
      <trkpt lat="59.9894425" lon="17.7385813">
        <ele>51.5679</ele>
        <time>2012-08-01T20:34:13Z</time>
      </trkpt>
      <trkpt lat="59.9893231" lon="17.7386223">
        <ele>57.3358</ele>
        <time>2012-08-01T20:34:16Z</time>
      </trkpt>
      <trkpt lat="59.9892895" lon="17.7386389">
        <ele>57.8165</ele>
        <time>2012-08-01T20:34:17Z</time>
      </trkpt>
      <trkpt lat="59.9891823" lon="17.7387063">
        <ele>58.7777</ele>
        <time>2012-08-01T20:34:21Z</time>
      </trkpt>
      <trkpt lat="59.9891341" lon="17.738727">
        <ele>58.7777</ele>
        <time>2012-08-01T20:34:24Z</time>
      </trkpt>
      <trkpt lat="59.9890558" lon="17.7387662">
        <ele>58.7777</ele>
        <time>2012-08-01T20:34:28Z</time>
      </trkpt>
      <trkpt lat="59.9889917" lon="17.738824">
        <ele>58.2971</ele>
        <time>2012-08-01T20:34:31Z</time>
      </trkpt>
      <trkpt lat="59.9888922" lon="17.7388809">
        <ele>57.8165</ele>
        <time>2012-08-01T20:34:35Z</time>
      </trkpt>
      <trkpt lat="59.9888006" lon="17.7389445">
        <ele>56.3745</ele>
        <time>2012-08-01T20:34:39Z</time>
      </trkpt>
      <trkpt lat="59.988754" lon="17.7389772">
        <ele>55.8938</ele>
        <time>2012-08-01T20:34:41Z</time>
      </trkpt>
      <trkpt lat="59.9886234" lon="17.7390751">
        <ele>53.9712</ele>
        <time>2012-08-01T20:34:47Z</time>
      </trkpt>
      <trkpt lat="59.988583" lon="17.739149">
        <ele>53.9712</ele>
        <time>2012-08-01T20:34:49Z</time>
      </trkpt>
      <trkpt lat="59.9884618" lon="17.7391875">
        <ele>52.0486</ele>
        <time>2012-08-01T20:34:55Z</time>
      </trkpt>
      <trkpt lat="59.9883456" lon="17.7392633">
        <ele>54.9324</ele>
        <time>2012-08-01T20:34:59Z</time>
      </trkpt>
      <trkpt lat="59.9882432" lon="17.7393049">
        <ele>54.9324</ele>
        <time>2012-08-01T20:35:03Z</time>
      </trkpt>
      <trkpt lat="59.9881754" lon="17.7392807">
        <ele>54.4518</ele>
        <time>2012-08-01T20:35:07Z</time>
      </trkpt>
      <trkpt lat="59.9880654" lon="17.7392866">
        <ele>57.3358</ele>
        <time>2012-08-01T20:35:12Z</time>
      </trkpt>
      <trkpt lat="59.9879506" lon="17.7392962">
        <ele>57.3358</ele>
        <time>2012-08-01T20:35:17Z</time>
      </trkpt>
      <trkpt lat="59.9879035" lon="17.7392896">
        <ele>56.3745</ele>
        <time>2012-08-01T20:35:19Z</time>
      </trkpt>
      <trkpt lat="59.9878457" lon="17.7393279">
        <ele>55.8938</ele>
        <time>2012-08-01T20:35:21Z</time>
      </trkpt>
      <trkpt lat="59.987735" lon="17.7393495">
        <ele>56.3745</ele>
        <time>2012-08-01T20:35:25Z</time>
      </trkpt>
      <trkpt lat="59.9876282" lon="17.7393905">
        <ele>55.8938</ele>
        <time>2012-08-01T20:35:29Z</time>
      </trkpt>
      <trkpt lat="59.987576" lon="17.7394189">
        <ele>55.4131</ele>
        <time>2012-08-01T20:35:31Z</time>
      </trkpt>
      <trkpt lat="59.9874333" lon="17.7394719">
        <ele>55.4131</ele>
        <time>2012-08-01T20:35:37Z</time>
      </trkpt>
      <trkpt lat="59.987325" lon="17.7394733">
        <ele>57.8165</ele>
        <time>2012-08-01T20:35:41Z</time>
      </trkpt>
      <trkpt lat="59.9872657" lon="17.7394116">
        <ele>58.7777</ele>
        <time>2012-08-01T20:35:44Z</time>
      </trkpt>
      <trkpt lat="59.9871367" lon="17.7394375">
        <ele>57.3358</ele>
        <time>2012-08-01T20:35:48Z</time>
      </trkpt>
      <trkpt lat="59.9870294" lon="17.7394067">
        <ele>57.3358</ele>
        <time>2012-08-01T20:35:52Z</time>
      </trkpt>
      <trkpt lat="59.9869231" lon="17.7393627">
        <ele>57.8165</ele>
        <time>2012-08-01T20:35:56Z</time>
      </trkpt>
      <trkpt lat="59.9868372" lon="17.7392562">
        <ele>57.8165</ele>
        <time>2012-08-01T20:36:00Z</time>
      </trkpt>
      <trkpt lat="59.9867161" lon="17.7390868">
        <ele>55.8938</ele>
        <time>2012-08-01T20:36:06Z</time>
      </trkpt>
      <trkpt lat="59.9866529" lon="17.7390544">
        <ele>54.4518</ele>
        <time>2012-08-01T20:36:09Z</time>
      </trkpt>
      <trkpt lat="59.9865789" lon="17.7389609">
        <ele>52.5292</ele>
        <time>2012-08-01T20:36:13Z</time>
      </trkpt>
      <trkpt lat="59.9865131" lon="17.738875">
        <ele>49.6453</ele>
        <time>2012-08-01T20:36:17Z</time>
      </trkpt>
      <trkpt lat="59.9864016" lon="17.7388037">
        <ele>48.684</ele>
        <time>2012-08-01T20:36:21Z</time>
      </trkpt>
      <trkpt lat="59.9863044" lon="17.7387497">
        <ele>47.2418</ele>
        <time>2012-08-01T20:36:25Z</time>
      </trkpt>
      <trkpt lat="59.9862436" lon="17.7387244">
        <ele>46.7612</ele>
        <time>2012-08-01T20:36:28Z</time>
      </trkpt>
      <trkpt lat="59.9861326" lon="17.7386467">
        <ele>46.2806</ele>
        <time>2012-08-01T20:36:32Z</time>
      </trkpt>
      <trkpt lat="59.98603" lon="17.7385872">
        <ele>45.3192</ele>
        <time>2012-08-01T20:36:36Z</time>
      </trkpt>
      <trkpt lat="59.9859146" lon="17.7385524">
        <ele>44.358</ele>
        <time>2012-08-01T20:36:40Z</time>
      </trkpt>
      <trkpt lat="59.9857748" lon="17.7384781">
        <ele>44.358</ele>
        <time>2012-08-01T20:36:45Z</time>
      </trkpt>
      <trkpt lat="59.9857193" lon="17.7384556">
        <ele>44.8386</ele>
        <time>2012-08-01T20:36:47Z</time>
      </trkpt>
      <trkpt lat="59.9856182" lon="17.7384348">
        <ele>44.358</ele>
        <time>2012-08-01T20:36:51Z</time>
      </trkpt>
      <trkpt lat="59.9855143" lon="17.738453">
        <ele>44.358</ele>
        <time>2012-08-01T20:36:55Z</time>
      </trkpt>
      <trkpt lat="59.9854257" lon="17.7383792">
        <ele>44.358</ele>
        <time>2012-08-01T20:36:59Z</time>
      </trkpt>
      <trkpt lat="59.9852919" lon="17.738281">
        <ele>42.916</ele>
        <time>2012-08-01T20:37:04Z</time>
      </trkpt>
      <trkpt lat="59.9851805" lon="17.7382432">
        <ele>42.4354</ele>
        <time>2012-08-01T20:37:08Z</time>
      </trkpt>
      <trkpt lat="59.985074" lon="17.738241">
        <ele>42.4354</ele>
        <time>2012-08-01T20:37:12Z</time>
      </trkpt>
      <trkpt lat="59.9849689" lon="17.7382197">
        <ele>42.916</ele>
        <time>2012-08-01T20:37:16Z</time>
      </trkpt>
      <trkpt lat="59.984946" lon="17.7382169">
        <ele>43.8773</ele>
        <time>2012-08-01T20:37:17Z</time>
      </trkpt>
      <trkpt lat="59.9848018" lon="17.7381925">
        <ele>47.2418</ele>
        <time>2012-08-01T20:37:22Z</time>
      </trkpt>
      <trkpt lat="59.9846527" lon="17.7381687">
        <ele>48.684</ele>
        <time>2012-08-01T20:37:27Z</time>
      </trkpt>
      <trkpt lat="59.9844915" lon="17.7381668">
        <ele>52.0486</ele>
        <time>2012-08-01T20:37:32Z</time>
      </trkpt>
      <trkpt lat="59.9843612" lon="17.7381323">
        <ele>51.5679</ele>
        <time>2012-08-01T20:37:36Z</time>
      </trkpt>
      <trkpt lat="59.9842431" lon="17.7381029">
        <ele>53.0098</ele>
        <time>2012-08-01T20:37:40Z</time>
      </trkpt>
      <trkpt lat="59.9841695" lon="17.7381281">
        <ele>53.9712</ele>
        <time>2012-08-01T20:37:42Z</time>
      </trkpt>
      <trkpt lat="59.9840087" lon="17.7380967">
        <ele>54.4518</ele>
        <time>2012-08-01T20:37:48Z</time>
      </trkpt>
      <trkpt lat="59.9839778" lon="17.7381101">
        <ele>53.9712</ele>
        <time>2012-08-01T20:37:49Z</time>
      </trkpt>
      <trkpt lat="59.9838075" lon="17.7380945">
        <ele>52.5292</ele>
        <time>2012-08-01T20:37:56Z</time>
      </trkpt>
      <trkpt lat="59.9837536" lon="17.7380898">
        <ele>51.0872</ele>
        <time>2012-08-01T20:37:58Z</time>
      </trkpt>
      <trkpt lat="59.9836361" lon="17.7381464">
        <ele>50.6066</ele>
        <time>2012-08-01T20:38:02Z</time>
      </trkpt>
      <trkpt lat="59.9835584" lon="17.7381561">
        <ele>50.126</ele>
        <time>2012-08-01T20:38:05Z</time>
      </trkpt>
      <trkpt lat="59.98354" lon="17.7381505">
        <ele>49.6453</ele>
        <time>2012-08-01T20:38:06Z</time>
      </trkpt>
      <trkpt lat="59.98348" lon="17.7381503">
        <ele>48.2034</ele>
        <time>2012-08-01T20:38:09Z</time>
      </trkpt>
      <trkpt lat="59.9834019" lon="17.7381899">
        <ele>45.7999</ele>
        <time>2012-08-01T20:38:13Z</time>
      </trkpt>
      <trkpt lat="59.9833247" lon="17.7381961">
        <ele>47.2418</ele>
        <time>2012-08-01T20:38:16Z</time>
      </trkpt>
      <trkpt lat="59.983222" lon="17.7381827">
        <ele>49.1646</ele>
        <time>2012-08-01T20:38:20Z</time>
      </trkpt>
      <trkpt lat="59.9830848" lon="17.7382204">
        <ele>50.126</ele>
        <time>2012-08-01T20:38:25Z</time>
      </trkpt>
      <trkpt lat="59.9829743" lon="17.7382903">
        <ele>52.5292</ele>
        <time>2012-08-01T20:38:29Z</time>
      </trkpt>
      <trkpt lat="59.9828885" lon="17.7382675">
        <ele>53.0098</ele>
        <time>2012-08-01T20:38:33Z</time>
      </trkpt>
      <trkpt lat="59.9827719" lon="17.7382374">
        <ele>52.5292</ele>
        <time>2012-08-01T20:38:38Z</time>
      </trkpt>
      <trkpt lat="59.9826937" lon="17.7381945">
        <ele>53.0098</ele>
        <time>2012-08-01T20:38:42Z</time>
      </trkpt>
      <trkpt lat="59.9825715" lon="17.7381681">
        <ele>52.0486</ele>
        <time>2012-08-01T20:38:47Z</time>
      </trkpt>
      <trkpt lat="59.9824306" lon="17.7381453">
        <ele>51.0872</ele>
        <time>2012-08-01T20:38:53Z</time>
      </trkpt>
      <trkpt lat="59.9823099" lon="17.738222">
        <ele>50.126</ele>
        <time>2012-08-01T20:38:57Z</time>
      </trkpt>
      <trkpt lat="59.9822411" lon="17.7382927">
        <ele>49.1646</ele>
        <time>2012-08-01T20:38:59Z</time>
      </trkpt>
      <trkpt lat="59.982126" lon="17.7383058">
        <ele>47.2418</ele>
        <time>2012-08-01T20:39:04Z</time>
      </trkpt>
      <trkpt lat="59.9820478" lon="17.7383253">
        <ele>44.8386</ele>
        <time>2012-08-01T20:39:07Z</time>
      </trkpt>
      <trkpt lat="59.9819509" lon="17.7384013">
        <ele>44.358</ele>
        <time>2012-08-01T20:39:11Z</time>
      </trkpt>
      <trkpt lat="59.9819072" lon="17.7384338">
        <ele>43.8773</ele>
        <time>2012-08-01T20:39:14Z</time>
      </trkpt>
      <trkpt lat="59.9818281" lon="17.7384411">
        <ele>43.3966</ele>
        <time>2012-08-01T20:39:18Z</time>
      </trkpt>
      <trkpt lat="59.9817549" lon="17.7384317">
        <ele>42.4354</ele>
        <time>2012-08-01T20:39:21Z</time>
      </trkpt>
      <trkpt lat="59.9816557" lon="17.7384617">
        <ele>41.9547</ele>
        <time>2012-08-01T20:39:25Z</time>
      </trkpt>
      <trkpt lat="59.9815904" lon="17.7384711">
        <ele>45.3192</ele>
        <time>2012-08-01T20:39:28Z</time>
      </trkpt>
      <trkpt lat="59.9815669" lon="17.7384757">
        <ele>45.3192</ele>
        <time>2012-08-01T20:39:29Z</time>
      </trkpt>
      <trkpt lat="59.9814183" lon="17.7385219">
        <ele>46.2806</ele>
        <time>2012-08-01T20:39:35Z</time>
      </trkpt>
      <trkpt lat="59.9813029" lon="17.7385403">
        <ele>48.2034</ele>
        <time>2012-08-01T20:39:40Z</time>
      </trkpt>
      <trkpt lat="59.9811635" lon="17.7385502">
        <ele>48.684</ele>
        <time>2012-08-01T20:39:46Z</time>
      </trkpt>
      <trkpt lat="59.9810573" lon="17.7385341">
        <ele>49.1646</ele>
        <time>2012-08-01T20:39:51Z</time>
      </trkpt>
      <trkpt lat="59.9809321" lon="17.7386176">
        <ele>48.684</ele>
        <time>2012-08-01T20:39:55Z</time>
      </trkpt>
      <trkpt lat="59.9809028" lon="17.7386372">
        <ele>48.684</ele>
        <time>2012-08-01T20:39:56Z</time>
      </trkpt>
      <trkpt lat="59.9807515" lon="17.7387115">
        <ele>49.1646</ele>
        <time>2012-08-01T20:40:02Z</time>
      </trkpt>
      <trkpt lat="59.9806149" lon="17.7387836">
        <ele>46.7612</ele>
        <time>2012-08-01T20:40:07Z</time>
      </trkpt>
      <trkpt lat="59.9804891" lon="17.7388074">
        <ele>46.2806</ele>
        <time>2012-08-01T20:40:12Z</time>
      </trkpt>
      <trkpt lat="59.9803621" lon="17.7388668">
        <ele>45.3192</ele>
        <time>2012-08-01T20:40:17Z</time>
      </trkpt>
      <trkpt lat="59.9802628" lon="17.7389034">
        <ele>43.3966</ele>
        <time>2012-08-01T20:40:22Z</time>
      </trkpt>
      <trkpt lat="59.9801658" lon="17.7388776">
        <ele>41.9547</ele>
        <time>2012-08-01T20:40:26Z</time>
      </trkpt>
      <trkpt lat="59.980069" lon="17.7388472">
        <ele>40.9934</ele>
        <time>2012-08-01T20:40:30Z</time>
      </trkpt>
      <trkpt lat="59.9799691" lon="17.7388581">
        <ele>39.0707</ele>
        <time>2012-08-01T20:40:34Z</time>
      </trkpt>
      <trkpt lat="59.9798893" lon="17.7388535">
        <ele>36.1868</ele>
        <time>2012-08-01T20:40:37Z</time>
      </trkpt>
      <trkpt lat="59.9797478" lon="17.7388839">
        <ele>34.7449</ele>
        <time>2012-08-01T20:40:43Z</time>
      </trkpt>
      <trkpt lat="59.9796271" lon="17.7389332">
        <ele>33.7834</ele>
        <time>2012-08-01T20:40:48Z</time>
      </trkpt>
      <trkpt lat="59.9795142" lon="17.738996">
        <ele>34.2642</ele>
        <time>2012-08-01T20:40:53Z</time>
      </trkpt>
      <trkpt lat="59.9794226" lon="17.7390227">
        <ele>33.3029</ele>
        <time>2012-08-01T20:40:58Z</time>
      </trkpt>
      <trkpt lat="59.9793503" lon="17.7390745">
        <ele>31.8607</ele>
        <time>2012-08-01T20:41:02Z</time>
      </trkpt>
      <trkpt lat="59.9792789" lon="17.7391233">
        <ele>31.3801</ele>
        <time>2012-08-01T20:41:05Z</time>
      </trkpt>
      <trkpt lat="59.9791993" lon="17.7391792">
        <ele>31.3801</ele>
        <time>2012-08-01T20:41:09Z</time>
      </trkpt>
      <trkpt lat="59.979151" lon="17.7392057">
        <ele>31.8607</ele>
        <time>2012-08-01T20:41:11Z</time>
      </trkpt>
      <trkpt lat="59.9790305" lon="17.7392436">
        <ele>31.3801</ele>
        <time>2012-08-01T20:41:16Z</time>
      </trkpt>
      <trkpt lat="59.9789326" lon="17.7392783">
        <ele>31.8607</ele>
        <time>2012-08-01T20:41:20Z</time>
      </trkpt>
      <trkpt lat="59.9789022" lon="17.7392976">
        <ele>31.8607</ele>
        <time>2012-08-01T20:41:21Z</time>
      </trkpt>
      <trkpt lat="59.9787533" lon="17.7392892">
        <ele>32.8223</ele>
        <time>2012-08-01T20:41:27Z</time>
      </trkpt>
      <trkpt lat="59.9787252" lon="17.7392807">
        <ele>32.8223</ele>
        <time>2012-08-01T20:41:28Z</time>
      </trkpt>
      <trkpt lat="59.9785951" lon="17.7392299">
        <ele>32.8223</ele>
        <time>2012-08-01T20:41:33Z</time>
      </trkpt>
      <trkpt lat="59.9784366" lon="17.7392373">
        <ele>31.8607</ele>
        <time>2012-08-01T20:41:39Z</time>
      </trkpt>
      <trkpt lat="59.9783916" lon="17.7392585">
        <ele>31.8607</ele>
        <time>2012-08-01T20:41:41Z</time>
      </trkpt>
      <trkpt lat="59.9782631" lon="17.7392549">
        <ele>32.3416</ele>
        <time>2012-08-01T20:41:46Z</time>
      </trkpt>
      <trkpt lat="59.9781492" lon="17.7392176">
        <ele>31.8607</ele>
        <time>2012-08-01T20:41:50Z</time>
      </trkpt>
      <trkpt lat="59.9779881" lon="17.7391217">
        <ele>32.3416</ele>
        <time>2012-08-01T20:41:57Z</time>
      </trkpt>
      <trkpt lat="59.9778882" lon="17.7390849">
        <ele>32.3416</ele>
        <time>2012-08-01T20:42:01Z</time>
      </trkpt>
      <trkpt lat="59.977757" lon="17.7390419">
        <ele>31.8607</ele>
        <time>2012-08-01T20:42:06Z</time>
      </trkpt>
      <trkpt lat="59.9777336" lon="17.7390348">
        <ele>31.8607</ele>
        <time>2012-08-01T20:42:07Z</time>
      </trkpt>
      <trkpt lat="59.9775864" lon="17.7389789">
        <ele>31.8607</ele>
        <time>2012-08-01T20:42:13Z</time>
      </trkpt>
      <trkpt lat="59.9774912" lon="17.738972">
        <ele>30.8995</ele>
        <time>2012-08-01T20:42:17Z</time>
      </trkpt>
      <trkpt lat="59.9773068" lon="17.7390881">
        <ele>31.3801</ele>
        <time>2012-08-01T20:42:23Z</time>
      </trkpt>
      <trkpt lat="59.9772544" lon="17.7391353">
        <ele>30.8995</ele>
        <time>2012-08-01T20:42:25Z</time>
      </trkpt>
      <trkpt lat="59.9771967" lon="17.7391808">
        <ele>30.8995</ele>
        <time>2012-08-01T20:42:28Z</time>
      </trkpt>
      <trkpt lat="59.9770946" lon="17.739223">
        <ele>30.8995</ele>
        <time>2012-08-01T20:42:33Z</time>
      </trkpt>
      <trkpt lat="59.9769857" lon="17.7392694">
        <ele>30.4188</ele>
        <time>2012-08-01T20:42:37Z</time>
      </trkpt>
      <trkpt lat="59.9769142" lon="17.7392548">
        <ele>30.8995</ele>
        <time>2012-08-01T20:42:41Z</time>
      </trkpt>
      <trkpt lat="59.9768763" lon="17.7392653">
        <ele>31.8607</ele>
        <time>2012-08-01T20:42:43Z</time>
      </trkpt>
      <trkpt lat="59.9767178" lon="17.739299">
        <ele>31.8607</ele>
        <time>2012-08-01T20:42:50Z</time>
      </trkpt>
      <trkpt lat="59.9765779" lon="17.7393749">
        <ele>31.3801</ele>
        <time>2012-08-01T20:42:55Z</time>
      </trkpt>
      <trkpt lat="59.9765056" lon="17.7394647">
        <ele>32.3416</ele>
        <time>2012-08-01T20:42:58Z</time>
      </trkpt>
      <trkpt lat="59.976433" lon="17.739559">
        <ele>32.8223</ele>
        <time>2012-08-01T20:43:01Z</time>
      </trkpt>
      <trkpt lat="59.9764106" lon="17.7396088">
        <ele>32.8223</ele>
        <time>2012-08-01T20:43:02Z</time>
      </trkpt>
      <trkpt lat="59.9763062" lon="17.7398972">
        <ele>32.8223</ele>
        <time>2012-08-01T20:43:08Z</time>
      </trkpt>
      <trkpt lat="59.9762895" lon="17.7399453">
        <ele>32.8223</ele>
        <time>2012-08-01T20:43:09Z</time>
      </trkpt>
      <trkpt lat="59.9762391" lon="17.7401918">
        <ele>33.3029</ele>
        <time>2012-08-01T20:43:14Z</time>
      </trkpt>
      <trkpt lat="59.9761662" lon="17.7404353">
        <ele>32.3416</ele>
        <time>2012-08-01T20:43:19Z</time>
      </trkpt>
      <trkpt lat="59.9761331" lon="17.7405183">
        <ele>31.8607</ele>
        <time>2012-08-01T20:43:21Z</time>
      </trkpt>
      <trkpt lat="59.9760523" lon="17.7407595">
        <ele>30.4188</ele>
        <time>2012-08-01T20:43:27Z</time>
      </trkpt>
      <trkpt lat="59.9759962" lon="17.7409812">
        <ele>29.9381</ele>
        <time>2012-08-01T20:43:32Z</time>
      </trkpt>
      <trkpt lat="59.9759145" lon="17.7412562">
        <ele>28.0155</ele>
        <time>2012-08-01T20:43:38Z</time>
      </trkpt>
      <trkpt lat="59.9758547" lon="17.7414699">
        <ele>28.0155</ele>
        <time>2012-08-01T20:43:43Z</time>
      </trkpt>
      <trkpt lat="59.9757968" lon="17.7417429">
        <ele>29.4575</ele>
        <time>2012-08-01T20:43:49Z</time>
      </trkpt>
      <trkpt lat="59.9757534" lon="17.7419661">
        <ele>30.4188</ele>
        <time>2012-08-01T20:43:54Z</time>
      </trkpt>
      <trkpt lat="59.9757229" lon="17.7420506">
        <ele>29.9381</ele>
        <time>2012-08-01T20:43:56Z</time>
      </trkpt>
      <trkpt lat="59.9756643" lon="17.7422536">
        <ele>30.4188</ele>
        <time>2012-08-01T20:44:01Z</time>
      </trkpt>
      <trkpt lat="59.9756275" lon="17.7424251">
        <ele>30.4188</ele>
        <time>2012-08-01T20:44:05Z</time>
      </trkpt>
      <trkpt lat="59.9755478" lon="17.7427389">
        <ele>32.3416</ele>
        <time>2012-08-01T20:44:13Z</time>
      </trkpt>
      <trkpt lat="59.9755001" lon="17.7429188">
        <ele>33.7834</ele>
        <time>2012-08-01T20:44:18Z</time>
      </trkpt>
      <trkpt lat="59.9754773" lon="17.7430063">
        <ele>34.2642</ele>
        <time>2012-08-01T20:44:20Z</time>
      </trkpt>
      <trkpt lat="59.9754289" lon="17.7432021">
        <ele>33.3029</ele>
        <time>2012-08-01T20:44:25Z</time>
      </trkpt>
      <trkpt lat="59.9753634" lon="17.7434513">
        <ele>31.8607</ele>
        <time>2012-08-01T20:44:31Z</time>
      </trkpt>
      <trkpt lat="59.9753328" lon="17.7436745">
        <ele>30.8995</ele>
        <time>2012-08-01T20:44:36Z</time>
      </trkpt>
      <trkpt lat="59.9753191" lon="17.7437657">
        <ele>29.9381</ele>
        <time>2012-08-01T20:44:38Z</time>
      </trkpt>
      <trkpt lat="59.9752642" lon="17.744058">
        <ele>28.9769</ele>
        <time>2012-08-01T20:44:45Z</time>
      </trkpt>
      <trkpt lat="59.9752239" lon="17.7442889">
        <ele>29.9381</ele>
        <time>2012-08-01T20:44:50Z</time>
      </trkpt>
      <trkpt lat="59.9751681" lon="17.7445215">
        <ele>31.3801</ele>
        <time>2012-08-01T20:44:55Z</time>
      </trkpt>
      <trkpt lat="59.9751121" lon="17.7447249">
        <ele>31.8607</ele>
        <time>2012-08-01T20:45:00Z</time>
      </trkpt>
      <trkpt lat="59.9750425" lon="17.7450032">
        <ele>34.2642</ele>
        <time>2012-08-01T20:45:06Z</time>
      </trkpt>
      <trkpt lat="59.9749966" lon="17.7451742">
        <ele>35.2255</ele>
        <time>2012-08-01T20:45:10Z</time>
      </trkpt>
      <trkpt lat="59.9749416" lon="17.7453128">
        <ele>35.7061</ele>
        <time>2012-08-01T20:45:14Z</time>
      </trkpt>
      <trkpt lat="59.9748916" lon="17.745475">
        <ele>36.1868</ele>
        <time>2012-08-01T20:45:18Z</time>
      </trkpt>
      <trkpt lat="59.974879" lon="17.7455132">
        <ele>37.1481</ele>
        <time>2012-08-01T20:45:19Z</time>
      </trkpt>
      <trkpt lat="59.9748555" lon="17.7456766">
        <ele>36.1868</ele>
        <time>2012-08-01T20:45:23Z</time>
      </trkpt>
      <trkpt lat="59.9748833" lon="17.7456746">
        <ele>34.7449</ele>
        <time>2012-08-01T20:51:11Z</time>
      </trkpt>
      <trkpt lat="59.9748758" lon="17.7456802">
        <ele>34.7449</ele>
        <time>2012-08-01T20:51:12Z</time>
      </trkpt>
      <trkpt lat="59.9747602" lon="17.7457662">
        <ele>34.2642</ele>
        <time>2012-08-01T20:51:16Z</time>
      </trkpt>
      <trkpt lat="59.974634" lon="17.7459565">
        <ele>33.7834</ele>
        <time>2012-08-01T20:51:21Z</time>
      </trkpt>
      <trkpt lat="59.9745453" lon="17.7461397">
        <ele>32.3416</ele>
        <time>2012-08-01T20:51:26Z</time>
      </trkpt>
      <trkpt lat="59.9744333" lon="17.746279">
        <ele>34.2642</ele>
        <time>2012-08-01T20:51:31Z</time>
      </trkpt>
      <trkpt lat="59.9743298" lon="17.7464117">
        <ele>33.7834</ele>
        <time>2012-08-01T20:51:36Z</time>
      </trkpt>
      <trkpt lat="59.9742062" lon="17.7465895">
        <ele>32.8223</ele>
        <time>2012-08-01T20:51:42Z</time>
      </trkpt>
      <trkpt lat="59.9740878" lon="17.746748">
        <ele>30.8995</ele>
        <time>2012-08-01T20:51:48Z</time>
      </trkpt>
      <trkpt lat="59.9739842" lon="17.7468839">
        <ele>31.3801</ele>
        <time>2012-08-01T20:51:53Z</time>
      </trkpt>
      <trkpt lat="59.9738569" lon="17.7470528">
        <ele>32.3416</ele>
        <time>2012-08-01T20:51:59Z</time>
      </trkpt>
      <trkpt lat="59.9737476" lon="17.7471872">
        <ele>31.3801</ele>
        <time>2012-08-01T20:52:04Z</time>
      </trkpt>
      <trkpt lat="59.973623" lon="17.7473161">
        <ele>30.8995</ele>
        <time>2012-08-01T20:52:10Z</time>
      </trkpt>
      <trkpt lat="59.9734985" lon="17.7474362">
        <ele>29.9381</ele>
        <time>2012-08-01T20:52:15Z</time>
      </trkpt>
      <trkpt lat="59.9733502" lon="17.7475719">
        <ele>28.0155</ele>
        <time>2012-08-01T20:52:21Z</time>
      </trkpt>
      <trkpt lat="59.9732525" lon="17.7476607">
        <ele>27.5349</ele>
        <time>2012-08-01T20:52:25Z</time>
      </trkpt>
      <trkpt lat="59.9732098" lon="17.7477032">
        <ele>28.4962</ele>
        <time>2012-08-01T20:52:27Z</time>
      </trkpt>
      <trkpt lat="59.9731088" lon="17.7477984">
        <ele>30.8995</ele>
        <time>2012-08-01T20:52:32Z</time>
      </trkpt>
      <trkpt lat="59.9729903" lon="17.7479807">
        <ele>30.8995</ele>
        <time>2012-08-01T20:52:38Z</time>
      </trkpt>
      <trkpt lat="59.972909" lon="17.7481019">
        <ele>32.3416</ele>
        <time>2012-08-01T20:52:42Z</time>
      </trkpt>
      <trkpt lat="59.972786" lon="17.7483371">
        <ele>31.8607</ele>
        <time>2012-08-01T20:52:48Z</time>
      </trkpt>
      <trkpt lat="59.9726847" lon="17.7485639">
        <ele>29.4575</ele>
        <time>2012-08-01T20:52:54Z</time>
      </trkpt>
      <trkpt lat="59.9725832" lon="17.7487966">
        <ele>28.9769</ele>
        <time>2012-08-01T20:53:00Z</time>
      </trkpt>
      <trkpt lat="59.9725022" lon="17.7489712">
        <ele>28.0155</ele>
        <time>2012-08-01T20:53:05Z</time>
      </trkpt>
      <trkpt lat="59.972418" lon="17.7491483">
        <ele>28.0155</ele>
        <time>2012-08-01T20:53:10Z</time>
      </trkpt>
      <trkpt lat="59.9723024" lon="17.7493999">
        <ele>28.9769</ele>
        <time>2012-08-01T20:53:17Z</time>
      </trkpt>
      <trkpt lat="59.9722247" lon="17.7496353">
        <ele>28.4962</ele>
        <time>2012-08-01T20:53:23Z</time>
      </trkpt>
      <trkpt lat="59.9721496" lon="17.7498324">
        <ele>28.0155</ele>
        <time>2012-08-01T20:53:28Z</time>
      </trkpt>
      <trkpt lat="59.9720652" lon="17.7500205">
        <ele>28.0155</ele>
        <time>2012-08-01T20:53:33Z</time>
      </trkpt>
      <trkpt lat="59.9719492" lon="17.7502749">
        <ele>28.4962</ele>
        <time>2012-08-01T20:53:40Z</time>
      </trkpt>
      <trkpt lat="59.9718457" lon="17.7504949">
        <ele>28.9769</ele>
        <time>2012-08-01T20:53:46Z</time>
      </trkpt>
      <trkpt lat="59.9717475" lon="17.7506754">
        <ele>28.9769</ele>
        <time>2012-08-01T20:53:52Z</time>
      </trkpt>
      <trkpt lat="59.9716403" lon="17.7508504">
        <ele>28.9769</ele>
        <time>2012-08-01T20:53:58Z</time>
      </trkpt>
      <trkpt lat="59.9715051" lon="17.7510168">
        <ele>28.0155</ele>
        <time>2012-08-01T20:54:05Z</time>
      </trkpt>
      <trkpt lat="59.9713773" lon="17.7512042">
        <ele>26.5736</ele>
        <time>2012-08-01T20:54:12Z</time>
      </trkpt>
      <trkpt lat="59.9712667" lon="17.751354">
        <ele>27.5349</ele>
        <time>2012-08-01T20:54:17Z</time>
      </trkpt>
      <trkpt lat="59.9711406" lon="17.751511">
        <ele>27.5349</ele>
        <time>2012-08-01T20:54:23Z</time>
      </trkpt>
      <trkpt lat="59.9710457" lon="17.7516274">
        <ele>27.0543</ele>
        <time>2012-08-01T20:54:27Z</time>
      </trkpt>
      <trkpt lat="59.9709132" lon="17.7517934">
        <ele>28.0155</ele>
        <time>2012-08-01T20:54:33Z</time>
      </trkpt>
      <trkpt lat="59.9708234" lon="17.7519451">
        <ele>28.4962</ele>
        <time>2012-08-01T20:54:38Z</time>
      </trkpt>
      <trkpt lat="59.9707031" lon="17.7521387">
        <ele>28.4962</ele>
        <time>2012-08-01T20:54:44Z</time>
      </trkpt>
      <trkpt lat="59.9706078" lon="17.7523403">
        <ele>28.4962</ele>
        <time>2012-08-01T20:54:49Z</time>
      </trkpt>
      <trkpt lat="59.9705137" lon="17.7525546">
        <ele>28.0155</ele>
        <time>2012-08-01T20:54:55Z</time>
      </trkpt>
      <trkpt lat="59.9704376" lon="17.7526782">
        <ele>28.9769</ele>
        <time>2012-08-01T20:54:59Z</time>
      </trkpt>
      <trkpt lat="59.9703387" lon="17.7529547">
        <ele>30.8995</ele>
        <time>2012-08-01T20:55:06Z</time>
      </trkpt>
      <trkpt lat="59.9702913" lon="17.7531658">
        <ele>30.8995</ele>
        <time>2012-08-01T20:55:11Z</time>
      </trkpt>
      <trkpt lat="59.9702491" lon="17.7533365">
        <ele>31.8607</ele>
        <time>2012-08-01T20:55:15Z</time>
      </trkpt>
      <trkpt lat="59.9701509" lon="17.753598">
        <ele>33.3029</ele>
        <time>2012-08-01T20:55:21Z</time>
      </trkpt>
      <trkpt lat="59.9700995" lon="17.7537197">
        <ele>32.8223</ele>
        <time>2012-08-01T20:55:24Z</time>
      </trkpt>
      <trkpt lat="59.9700069" lon="17.7539066">
        <ele>33.3029</ele>
        <time>2012-08-01T20:55:29Z</time>
      </trkpt>
      <trkpt lat="59.9699247" lon="17.7541031">
        <ele>33.7834</ele>
        <time>2012-08-01T20:55:34Z</time>
      </trkpt>
      <trkpt lat="59.9698377" lon="17.7542557">
        <ele>32.3416</ele>
        <time>2012-08-01T20:55:39Z</time>
      </trkpt>
      <trkpt lat="59.9697429" lon="17.7544491">
        <ele>31.8607</ele>
        <time>2012-08-01T20:55:44Z</time>
      </trkpt>
      <trkpt lat="59.9696506" lon="17.7546283">
        <ele>31.8607</ele>
        <time>2012-08-01T20:55:49Z</time>
      </trkpt>
      <trkpt lat="59.9695552" lon="17.7547865">
        <ele>31.8607</ele>
        <time>2012-08-01T20:55:54Z</time>
      </trkpt>
      <trkpt lat="59.9694496" lon="17.7549921">
        <ele>29.9381</ele>
        <time>2012-08-01T20:56:00Z</time>
      </trkpt>
      <trkpt lat="59.9693668" lon="17.7551717">
        <ele>29.4575</ele>
        <time>2012-08-01T20:56:05Z</time>
      </trkpt>
      <trkpt lat="59.9692769" lon="17.7553772">
        <ele>28.4962</ele>
        <time>2012-08-01T20:56:10Z</time>
      </trkpt>
      <trkpt lat="59.9691498" lon="17.7556442">
        <ele>27.5349</ele>
        <time>2012-08-01T20:56:17Z</time>
      </trkpt>
      <trkpt lat="59.9690555" lon="17.7558294">
        <ele>26.0929</ele>
        <time>2012-08-01T20:56:22Z</time>
      </trkpt>
      <trkpt lat="59.9689696" lon="17.7559918">
        <ele>27.0543</ele>
        <time>2012-08-01T20:56:28Z</time>
      </trkpt>
      <trkpt lat="59.9690502" lon="17.7557854">
        <ele>26.5736</ele>
        <time>2012-08-01T20:56:33Z</time>
      </trkpt>
      <trkpt lat="59.9690878" lon="17.7557053">
        <ele>27.0543</ele>
        <time>2012-08-01T20:56:35Z</time>
      </trkpt>
      <trkpt lat="59.9691861" lon="17.7555236">
        <ele>26.5736</ele>
        <time>2012-08-01T20:56:40Z</time>
      </trkpt>
      <trkpt lat="59.9692848" lon="17.7553593">
        <ele>26.5736</ele>
        <time>2012-08-01T20:56:45Z</time>
      </trkpt>
      <trkpt lat="59.9693032" lon="17.7553299">
        <ele>26.0929</ele>
        <time>2012-08-01T20:56:46Z</time>
      </trkpt>
      <trkpt lat="59.9694359" lon="17.7551071">
        <ele>25.1317</ele>
        <time>2012-08-01T20:56:53Z</time>
      </trkpt>
      <trkpt lat="59.9695312" lon="17.7549531">
        <ele>24.1703</ele>
        <time>2012-08-01T20:56:58Z</time>
      </trkpt>
      <trkpt lat="59.9696181" lon="17.7547792">
        <ele>24.1703</ele>
        <time>2012-08-01T20:57:03Z</time>
      </trkpt>
      <trkpt lat="59.9696984" lon="17.754646">
        <ele>23.6896</ele>
        <time>2012-08-01T20:57:07Z</time>
      </trkpt>
      <trkpt lat="59.9698177" lon="17.7544802">
        <ele>21.2864</ele>
        <time>2012-08-01T20:57:13Z</time>
      </trkpt>
      <trkpt lat="59.969937" lon="17.7542662">
        <ele>21.2864</ele>
        <time>2012-08-01T20:57:19Z</time>
      </trkpt>
      <trkpt lat="59.9700407" lon="17.7540302">
        <ele>22.2476</ele>
        <time>2012-08-01T20:57:25Z</time>
      </trkpt>
      <trkpt lat="59.9701087" lon="17.7538201">
        <ele>23.6896</ele>
        <time>2012-08-01T20:57:30Z</time>
      </trkpt>
      <trkpt lat="59.9701766" lon="17.7536605">
        <ele>24.651</ele>
        <time>2012-08-01T20:57:34Z</time>
      </trkpt>
      <trkpt lat="59.9701957" lon="17.7536201">
        <ele>25.1317</ele>
        <time>2012-08-01T20:57:35Z</time>
      </trkpt>
      <trkpt lat="59.9702812" lon="17.7533547">
        <ele>26.5736</ele>
        <time>2012-08-01T20:57:41Z</time>
      </trkpt>
      <trkpt lat="59.9703636" lon="17.7530964">
        <ele>27.0543</ele>
        <time>2012-08-01T20:57:47Z</time>
      </trkpt>
      <trkpt lat="59.9704068" lon="17.7529094">
        <ele>28.0155</ele>
        <time>2012-08-01T20:57:51Z</time>
      </trkpt>
      <trkpt lat="59.9704148" lon="17.7528588">
        <ele>28.0155</ele>
        <time>2012-08-01T20:57:52Z</time>
      </trkpt>
      <trkpt lat="59.9704978" lon="17.7525921">
        <ele>28.9769</ele>
        <time>2012-08-01T20:57:58Z</time>
      </trkpt>
      <trkpt lat="59.9705161" lon="17.7525485">
        <ele>29.4575</ele>
        <time>2012-08-01T20:57:59Z</time>
      </trkpt>
      <trkpt lat="59.9705936" lon="17.7523415">
        <ele>31.8607</ele>
        <time>2012-08-01T20:58:04Z</time>
      </trkpt>
      <trkpt lat="59.9707043" lon="17.7521694">
        <ele>34.2642</ele>
        <time>2012-08-01T20:58:09Z</time>
      </trkpt>
      <trkpt lat="59.9707572" lon="17.7520605">
        <ele>34.2642</ele>
        <time>2012-08-01T20:58:11Z</time>
      </trkpt>
      <trkpt lat="59.970842" lon="17.7518988">
        <ele>33.7834</ele>
        <time>2012-08-01T20:58:16Z</time>
      </trkpt>
      <trkpt lat="59.9709363" lon="17.7517551">
        <ele>32.8223</ele>
        <time>2012-08-01T20:58:21Z</time>
      </trkpt>
      <trkpt lat="59.9710259" lon="17.7516223">
        <ele>32.8223</ele>
        <time>2012-08-01T20:58:26Z</time>
      </trkpt>
      <trkpt lat="59.9711017" lon="17.7515016">
        <ele>33.7834</ele>
        <time>2012-08-01T20:58:30Z</time>
      </trkpt>
      <trkpt lat="59.9711955" lon="17.7513794">
        <ele>33.7834</ele>
        <time>2012-08-01T20:58:35Z</time>
      </trkpt>
      <trkpt lat="59.9713009" lon="17.751268">
        <ele>32.8223</ele>
        <time>2012-08-01T20:58:40Z</time>
      </trkpt>
      <trkpt lat="59.9714139" lon="17.7511695">
        <ele>32.3416</ele>
        <time>2012-08-01T20:58:45Z</time>
      </trkpt>
      <trkpt lat="59.9715178" lon="17.7510536">
        <ele>31.3801</ele>
        <time>2012-08-01T20:58:50Z</time>
      </trkpt>
      <trkpt lat="59.9715349" lon="17.7510296">
        <ele>31.8607</ele>
        <time>2012-08-01T20:58:51Z</time>
      </trkpt>
      <trkpt lat="59.9716232" lon="17.750849">
        <ele>31.8607</ele>
        <time>2012-08-01T20:58:57Z</time>
      </trkpt>
      <trkpt lat="59.9717306" lon="17.750676">
        <ele>31.8607</ele>
        <time>2012-08-01T20:59:03Z</time>
      </trkpt>
      <trkpt lat="59.9718441" lon="17.7505217">
        <ele>30.8995</ele>
        <time>2012-08-01T20:59:09Z</time>
      </trkpt>
      <trkpt lat="59.9719553" lon="17.7503745">
        <ele>29.4575</ele>
        <time>2012-08-01T20:59:15Z</time>
      </trkpt>
      <trkpt lat="59.9720797" lon="17.7501556">
        <ele>28.4962</ele>
        <time>2012-08-01T20:59:22Z</time>
      </trkpt>
      <trkpt lat="59.9721433" lon="17.7500315">
        <ele>28.4962</ele>
        <time>2012-08-01T20:59:26Z</time>
      </trkpt>
      <trkpt lat="59.9722366" lon="17.7498557">
        <ele>28.4962</ele>
        <time>2012-08-01T20:59:32Z</time>
      </trkpt>
      <trkpt lat="59.9723143" lon="17.749619">
        <ele>28.9769</ele>
        <time>2012-08-01T20:59:38Z</time>
      </trkpt>
      <trkpt lat="59.972344" lon="17.7494789">
        <ele>29.9381</ele>
        <time>2012-08-01T20:59:41Z</time>
      </trkpt>
      <trkpt lat="59.9724079" lon="17.7493263">
        <ele>29.9381</ele>
        <time>2012-08-01T20:59:45Z</time>
      </trkpt>
      <trkpt lat="59.9725247" lon="17.7491552">
        <ele>30.4188</ele>
        <time>2012-08-01T20:59:51Z</time>
      </trkpt>
      <trkpt lat="59.9726107" lon="17.74901">
        <ele>29.9381</ele>
        <time>2012-08-01T20:59:56Z</time>
      </trkpt>
      <trkpt lat="59.9726916" lon="17.7488127">
        <ele>29.9381</ele>
        <time>2012-08-01T21:00:02Z</time>
      </trkpt>
      <trkpt lat="59.9727698" lon="17.748636">
        <ele>28.4962</ele>
        <time>2012-08-01T21:00:08Z</time>
      </trkpt>
      <trkpt lat="59.9728375" lon="17.748477">
        <ele>26.5736</ele>
        <time>2012-08-01T21:00:13Z</time>
      </trkpt>
      <trkpt lat="59.9729065" lon="17.7483231">
        <ele>26.0929</ele>
        <time>2012-08-01T21:00:18Z</time>
      </trkpt>
      <trkpt lat="59.9730129" lon="17.7481361">
        <ele>26.5736</ele>
        <time>2012-08-01T21:00:24Z</time>
      </trkpt>
      <trkpt lat="59.9731498" lon="17.7479371">
        <ele>27.5349</ele>
        <time>2012-08-01T21:00:31Z</time>
      </trkpt>
      <trkpt lat="59.9732502" lon="17.7478001">
        <ele>28.4962</ele>
        <time>2012-08-01T21:00:36Z</time>
      </trkpt>
      <trkpt lat="59.9733289" lon="17.7477072">
        <ele>28.9769</ele>
        <time>2012-08-01T21:00:40Z</time>
      </trkpt>
      <trkpt lat="59.9734348" lon="17.7475905">
        <ele>29.4575</ele>
        <time>2012-08-01T21:00:45Z</time>
      </trkpt>
      <trkpt lat="59.9735461" lon="17.747438">
        <ele>29.9381</ele>
        <time>2012-08-01T21:00:51Z</time>
      </trkpt>
      <trkpt lat="59.9736296" lon="17.7473385">
        <ele>30.4188</ele>
        <time>2012-08-01T21:00:55Z</time>
      </trkpt>
      <trkpt lat="59.9736993" lon="17.7472247">
        <ele>31.3801</ele>
        <time>2012-08-01T21:00:59Z</time>
      </trkpt>
      <trkpt lat="59.9737841" lon="17.7471172">
        <ele>31.8607</ele>
        <time>2012-08-01T21:01:04Z</time>
      </trkpt>
      <trkpt lat="59.9739118" lon="17.7469617">
        <ele>32.3416</ele>
        <time>2012-08-01T21:01:10Z</time>
      </trkpt>
      <trkpt lat="59.9740438" lon="17.7468212">
        <ele>32.8223</ele>
        <time>2012-08-01T21:01:16Z</time>
      </trkpt>
      <trkpt lat="59.9741512" lon="17.7466903">
        <ele>33.3029</ele>
        <time>2012-08-01T21:01:21Z</time>
      </trkpt>
      <trkpt lat="59.9742718" lon="17.746535">
        <ele>33.3029</ele>
        <time>2012-08-01T21:01:27Z</time>
      </trkpt>
      <trkpt lat="59.9743988" lon="17.7463511">
        <ele>34.2642</ele>
        <time>2012-08-01T21:01:34Z</time>
      </trkpt>
      <trkpt lat="59.9745107" lon="17.7462018">
        <ele>33.7834</ele>
        <time>2012-08-01T21:01:40Z</time>
      </trkpt>
      <trkpt lat="59.9745647" lon="17.7461129">
        <ele>34.7449</ele>
        <time>2012-08-01T21:01:43Z</time>
      </trkpt>
      <trkpt lat="59.9746429" lon="17.7459801">
        <ele>35.2255</ele>
        <time>2012-08-01T21:01:47Z</time>
      </trkpt>
      <trkpt lat="59.9747614" lon="17.7457537">
        <ele>34.7449</ele>
        <time>2012-08-01T21:01:54Z</time>
      </trkpt>
      <trkpt lat="59.974854" lon="17.7455873">
        <ele>33.7834</ele>
        <time>2012-08-01T21:01:59Z</time>
      </trkpt>
      <trkpt lat="59.9749075" lon="17.7454408">
        <ele>32.8223</ele>
        <time>2012-08-01T21:02:03Z</time>
      </trkpt>
      <trkpt lat="59.9749891" lon="17.7452534">
        <ele>31.8607</ele>
        <time>2012-08-01T21:02:08Z</time>
      </trkpt>
      <trkpt lat="59.9750552" lon="17.7450826">
        <ele>30.4188</ele>
        <time>2012-08-01T21:02:12Z</time>
      </trkpt>
      <trkpt lat="59.9750905" lon="17.7449872">
        <ele>29.4575</ele>
        <time>2012-08-01T21:02:15Z</time>
      </trkpt>
      <trkpt lat="59.9751189" lon="17.744911">
        <ele>29.9381</ele>
        <time>2012-08-01T21:02:17Z</time>
      </trkpt>
      <trkpt lat="59.9751754" lon="17.7446819">
        <ele>31.3801</ele>
        <time>2012-08-01T21:02:22Z</time>
      </trkpt>
      <trkpt lat="59.9752358" lon="17.7444495">
        <ele>31.8607</ele>
        <time>2012-08-01T21:02:27Z</time>
      </trkpt>
      <trkpt lat="59.9752637" lon="17.7442876">
        <ele>31.8607</ele>
        <time>2012-08-01T21:02:30Z</time>
      </trkpt>
      <trkpt lat="59.9752944" lon="17.7442087">
        <ele>32.3416</ele>
        <time>2012-08-01T21:02:32Z</time>
      </trkpt>
      <trkpt lat="59.975325" lon="17.7439236">
        <ele>33.7834</ele>
        <time>2012-08-01T21:02:37Z</time>
      </trkpt>
      <trkpt lat="59.9753493" lon="17.7436451">
        <ele>34.2642</ele>
        <time>2012-08-01T21:02:41Z</time>
      </trkpt>
      <trkpt lat="59.975356" lon="17.7435847">
        <ele>34.7449</ele>
        <time>2012-08-01T21:02:42Z</time>
      </trkpt>
      <trkpt lat="59.9754079" lon="17.743342">
        <ele>35.7061</ele>
        <time>2012-08-01T21:02:47Z</time>
      </trkpt>
      <trkpt lat="59.9754678" lon="17.743113">
        <ele>36.1868</ele>
        <time>2012-08-01T21:02:52Z</time>
      </trkpt>
      <trkpt lat="59.9755344" lon="17.7428395">
        <ele>37.1481</ele>
        <time>2012-08-01T21:02:58Z</time>
      </trkpt>
      <trkpt lat="59.9756165" lon="17.7424901">
        <ele>38.1094</ele>
        <time>2012-08-01T21:03:06Z</time>
      </trkpt>
      <trkpt lat="59.9756581" lon="17.7423162">
        <ele>39.0707</ele>
        <time>2012-08-01T21:03:10Z</time>
      </trkpt>
      <trkpt lat="59.9756964" lon="17.7421506">
        <ele>38.1094</ele>
        <time>2012-08-01T21:03:14Z</time>
      </trkpt>
      <trkpt lat="59.9757244" lon="17.741976">
        <ele>37.1481</ele>
        <time>2012-08-01T21:03:18Z</time>
      </trkpt>
      <trkpt lat="59.9757814" lon="17.7417765">
        <ele>38.1094</ele>
        <time>2012-08-01T21:03:23Z</time>
      </trkpt>
      <trkpt lat="59.9758208" lon="17.7415971">
        <ele>38.5901</ele>
        <time>2012-08-01T21:03:27Z</time>
      </trkpt>
      <trkpt lat="59.9758616" lon="17.7414347">
        <ele>38.1094</ele>
        <time>2012-08-01T21:03:31Z</time>
      </trkpt>
      <trkpt lat="59.9758824" lon="17.7412977">
        <ele>37.6287</ele>
        <time>2012-08-01T21:03:34Z</time>
      </trkpt>
      <trkpt lat="59.9759503" lon="17.7411089">
        <ele>37.1481</ele>
        <time>2012-08-01T21:03:39Z</time>
      </trkpt>
      <trkpt lat="59.9760202" lon="17.7408789">
        <ele>37.1481</ele>
        <time>2012-08-01T21:03:44Z</time>
      </trkpt>
      <trkpt lat="59.9760408" lon="17.7408379">
        <ele>36.6675</ele>
        <time>2012-08-01T21:03:45Z</time>
      </trkpt>
      <trkpt lat="59.9761035" lon="17.7406421">
        <ele>35.2255</ele>
        <time>2012-08-01T21:03:50Z</time>
      </trkpt>
      <trkpt lat="59.97617" lon="17.7404499">
        <ele>33.7834</ele>
        <time>2012-08-01T21:03:55Z</time>
      </trkpt>
      <trkpt lat="59.9761797" lon="17.7404241">
        <ele>33.7834</ele>
        <time>2012-08-01T21:03:56Z</time>
      </trkpt>
      <trkpt lat="59.9762493" lon="17.7402608">
        <ele>33.3029</ele>
        <time>2012-08-01T21:04:01Z</time>
      </trkpt>
      <trkpt lat="59.9762873" lon="17.7401535">
        <ele>32.8223</ele>
        <time>2012-08-01T21:04:04Z</time>
      </trkpt>
      <trkpt lat="59.976386" lon="17.7399332">
        <ele>31.3801</ele>
        <time>2012-08-01T21:04:10Z</time>
      </trkpt>
      <trkpt lat="59.9764455" lon="17.7397844">
        <ele>30.4188</ele>
        <time>2012-08-01T21:04:14Z</time>
      </trkpt>
      <trkpt lat="59.9765159" lon="17.7396432">
        <ele>29.9381</ele>
        <time>2012-08-01T21:04:19Z</time>
      </trkpt>
      <trkpt lat="59.9766202" lon="17.7395407">
        <ele>29.4575</ele>
        <time>2012-08-01T21:04:24Z</time>
      </trkpt>
      <trkpt lat="59.9767292" lon="17.7394533">
        <ele>29.9381</ele>
        <time>2012-08-01T21:04:29Z</time>
      </trkpt>
      <trkpt lat="59.9768216" lon="17.7393951">
        <ele>30.4188</ele>
        <time>2012-08-01T21:04:33Z</time>
      </trkpt>
      <trkpt lat="59.9769457" lon="17.7393428">
        <ele>31.8607</ele>
        <time>2012-08-01T21:04:38Z</time>
      </trkpt>
      <trkpt lat="59.9771023" lon="17.7392808">
        <ele>31.8607</ele>
        <time>2012-08-01T21:04:45Z</time>
      </trkpt>
      <trkpt lat="59.9772078" lon="17.7392207">
        <ele>31.8607</ele>
        <time>2012-08-01T21:04:50Z</time>
      </trkpt>
      <trkpt lat="59.9773186" lon="17.7391397">
        <ele>32.3416</ele>
        <time>2012-08-01T21:04:56Z</time>
      </trkpt>
      <trkpt lat="59.9774079" lon="17.7390596">
        <ele>33.7834</ele>
        <time>2012-08-01T21:05:01Z</time>
      </trkpt>
      <trkpt lat="59.9775362" lon="17.7389861">
        <ele>34.7449</ele>
        <time>2012-08-01T21:05:07Z</time>
      </trkpt>
      <trkpt lat="59.9776332" lon="17.7389441">
        <ele>35.7061</ele>
        <time>2012-08-01T21:05:11Z</time>
      </trkpt>
      <trkpt lat="59.9777414" lon="17.7389381">
        <ele>37.1481</ele>
        <time>2012-08-01T21:05:16Z</time>
      </trkpt>
      <trkpt lat="59.9778481" lon="17.7389859">
        <ele>37.1481</ele>
        <time>2012-08-01T21:05:21Z</time>
      </trkpt>
      <trkpt lat="59.977984" lon="17.7390482">
        <ele>38.1094</ele>
        <time>2012-08-01T21:05:27Z</time>
      </trkpt>
      <trkpt lat="59.9780839" lon="17.7390995">
        <ele>38.5901</ele>
        <time>2012-08-01T21:05:31Z</time>
      </trkpt>
      <trkpt lat="59.9781969" lon="17.7391283">
        <ele>36.6675</ele>
        <time>2012-08-01T21:05:36Z</time>
      </trkpt>
      <trkpt lat="59.9783226" lon="17.7391715">
        <ele>34.7449</ele>
        <time>2012-08-01T21:05:42Z</time>
      </trkpt>
      <trkpt lat="59.9784652" lon="17.7392058">
        <ele>33.7834</ele>
        <time>2012-08-01T21:05:48Z</time>
      </trkpt>
      <trkpt lat="59.9785876" lon="17.7392278">
        <ele>32.8223</ele>
        <time>2012-08-01T21:05:53Z</time>
      </trkpt>
      <trkpt lat="59.9787309" lon="17.739293">
        <ele>32.8223</ele>
        <time>2012-08-01T21:05:59Z</time>
      </trkpt>
      <trkpt lat="59.9788481" lon="17.7393502">
        <ele>31.3801</ele>
        <time>2012-08-01T21:06:04Z</time>
      </trkpt>
      <trkpt lat="59.978876" lon="17.739466">
        <ele>30.8995</ele>
        <time>2012-08-01T21:06:07Z</time>
      </trkpt>
    </trkseg>
  </trk>
</gpx>